sensor_id;sensor_type;location;lat;lon;timestamp;pressure;altitude;pressure_sealevel;temperature;humidity
63654;BME280;49809;47.418;19.080;2023-02-19T00:01:39;100579.72;;;10.85;73.75
63654;BME280;49809;47.418;19.080;2023-02-19T00:09:03;100580.59;;;10.69;74.10
63654;BME280;49809;47.418;19.080;2023-02-19T00:12:26;100581.12;;;10.71;74.06
63654;BME280;49809;47.418;19.080;2023-02-19T00:16:19;100575.41;;;10.79;73.59
63654;BME280;49809;47.418;19.080;2023-02-19T00:20:29;100582.22;;;10.75;73.83
63654;BME280;49809;47.418;19.080;2023-02-19T00:23:55;100585.94;;;10.74;73.89
63654;BME280;49809;47.418;19.080;2023-02-19T00:27:01;100583.16;;;10.64;74.29
63654;BME280;49809;47.418;19.080;2023-02-19T00:30:25;100583.09;;;10.59;74.60
63654;BME280;49809;47.418;19.080;2023-02-19T00:33:38;100577.78;;;10.59;74.58
63654;BME280;49809;47.418;19.080;2023-02-19T00:36:57;100577.88;;;10.64;74.50
63654;BME280;49809;47.418;19.080;2023-02-19T00:40:40;100575.22;;;10.64;74.45
63654;BME280;49809;47.418;19.080;2023-02-19T00:44:00;100576.03;;;10.65;74.49
63654;BME280;49809;47.418;19.080;2023-02-19T00:47:23;100574.34;;;10.59;74.60
63654;BME280;49809;47.418;19.080;2023-02-19T00:50:36;100569.94;;;10.48;75.32
63654;BME280;49809;47.418;19.080;2023-02-19T00:54:13;100571.72;;;10.42;75.71
63654;BME280;49809;47.418;19.080;2023-02-19T00:58:18;100576.03;;;10.48;75.80
63654;BME280;49809;47.418;19.080;2023-02-19T01:01:31;100580.31;;;10.49;76.24
63654;BME280;49809;47.418;19.080;2023-02-19T01:05:00;100585.09;;;10.52;76.42
63654;BME280;49809;47.418;19.080;2023-02-19T01:08:24;100600.31;;;10.62;76.31
63654;BME280;49809;47.418;19.080;2023-02-19T01:11:36;100592.13;;;10.63;76.27
63654;BME280;49809;47.418;19.080;2023-02-19T01:15:01;100580.03;;;10.51;76.99
63654;BME280;49809;47.418;19.080;2023-02-19T01:18:55;100588.03;;;10.56;77.13
63654;BME280;49809;47.418;19.080;2023-02-19T01:22:09;100584.56;;;10.50;77.56
63654;BME280;49809;47.418;19.080;2023-02-19T01:25:14;100577.66;;;10.49;77.64
63654;BME280;49809;47.418;19.080;2023-02-19T01:28:59;100581.19;;;10.55;77.33
63654;BME280;49809;47.418;19.080;2023-02-19T01:32:09;100590.97;;;10.54;77.32
63654;BME280;49809;47.418;19.080;2023-02-19T01:35:47;100581.91;;;10.50;77.37
63654;BME280;49809;47.418;19.080;2023-02-19T01:39:30;100590.59;;;10.45;77.53
63654;BME280;49809;47.418;19.080;2023-02-19T01:42:57;100585.06;;;10.30;78.37
63654;BME280;49809;47.418;19.080;2023-02-19T01:46:37;100582.00;;;10.22;78.86
63654;BME280;49809;47.418;19.080;2023-02-19T01:50:10;100582.50;;;10.19;79.16
63654;BME280;49809;47.418;19.080;2023-02-19T01:53:52;100582.00;;;10.22;79.03
63654;BME280;49809;47.418;19.080;2023-02-19T01:57:25;100577.19;;;10.19;79.15
63654;BME280;49809;47.418;19.080;2023-02-19T02:01:05;100577.34;;;10.29;78.53
63654;BME280;49809;47.418;19.080;2023-02-19T02:04:12;100576.47;;;10.40;77.94
63654;BME280;49809;47.418;19.080;2023-02-19T02:07:41;100562.59;;;10.33;78.39
63654;BME280;49809;47.418;19.080;2023-02-19T02:12:11;100560.31;;;10.41;78.11
63654;BME280;49809;47.418;19.080;2023-02-19T02:20:32;100557.00;;;10.68;77.02
63654;BME280;49809;47.418;19.080;2023-02-19T02:32:26;100556.91;;;10.63;77.10
63654;BME280;49809;47.418;19.080;2023-02-19T02:36:23;100557.03;;;10.51;77.85
63654;BME280;49809;47.418;19.080;2023-02-19T02:39:46;100545.28;;;10.64;77.63
63654;BME280;49809;47.418;19.080;2023-02-19T02:43:07;100539.66;;;10.60;77.90
63654;BME280;49809;47.418;19.080;2023-02-19T02:46:33;100535.91;;;10.56;78.39
63654;BME280;49809;47.418;19.080;2023-02-19T02:50:25;100543.31;;;10.54;78.83
63654;BME280;49809;47.418;19.080;2023-02-19T02:58:29;100549.50;;;10.43;80.49
63654;BME280;49809;47.418;19.080;2023-02-19T03:02:25;100544.88;;;10.33;81.78
63654;BME280;49809;47.418;19.080;2023-02-19T03:05:59;100562.06;;;10.31;82.54
63654;BME280;49809;47.418;19.080;2023-02-19T03:09:42;100559.41;;;10.31;82.91
63654;BME280;49809;47.418;19.080;2023-02-19T03:12:58;100557.72;;;10.25;83.26
63654;BME280;49809;47.418;19.080;2023-02-19T03:17:09;100552.34;;;10.20;83.69
63654;BME280;49809;47.418;19.080;2023-02-19T03:20:50;100555.53;;;10.22;83.72
63654;BME280;49809;47.418;19.080;2023-02-19T03:24:16;100558.56;;;10.14;84.24
63654;BME280;49809;47.418;19.080;2023-02-19T03:28:11;100556.16;;;10.12;84.36
63654;BME280;49809;47.418;19.080;2023-02-19T03:31:54;100554.81;;;10.10;84.27
63654;BME280;49809;47.418;19.080;2023-02-19T03:35:52;100551.12;;;9.94;84.81
63654;BME280;49809;47.418;19.080;2023-02-19T03:39:19;100552.81;;;9.83;85.40
63654;BME280;49809;47.418;19.080;2023-02-19T03:46:56;100541.75;;;9.70;86.10
63654;BME280;49809;47.418;19.080;2023-02-19T03:50:49;100554.47;;;9.56;86.27
63654;BME280;49809;47.418;19.080;2023-02-19T03:54:33;100561.25;;;9.52;86.25
63654;BME280;49809;47.418;19.080;2023-02-19T03:58:23;100571.16;;;9.45;86.83
63654;BME280;49809;47.418;19.080;2023-02-19T04:04:47;100553.88;;;9.54;85.62
63654;BME280;49809;47.418;19.080;2023-02-19T04:07:57;100556.28;;;9.39;86.06
63654;BME280;49809;47.418;19.080;2023-02-19T04:11:04;100540.97;;;9.41;85.60
63654;BME280;49809;47.418;19.080;2023-02-19T04:14:18;100550.81;;;9.29;85.86
63654;BME280;49809;47.418;19.080;2023-02-19T04:17:30;100546.34;;;9.46;82.89
63654;BME280;49809;47.418;19.080;2023-02-19T04:20:44;100560.09;;;9.76;79.84
63654;BME280;49809;47.418;19.080;2023-02-19T04:23:49;100551.38;;;9.76;82.12
63654;BME280;49809;47.418;19.080;2023-02-19T04:26:52;100550.69;;;9.52;83.82
63654;BME280;49809;47.418;19.080;2023-02-19T04:29:56;100549.91;;;9.51;83.55
63654;BME280;49809;47.418;19.080;2023-02-19T04:32:59;100541.47;;;9.38;85.07
63654;BME280;49809;47.418;19.080;2023-02-19T04:36:06;100549.47;;;9.43;84.81
63654;BME280;49809;47.418;19.080;2023-02-19T04:39:08;100557.88;;;9.40;85.13
63654;BME280;49809;47.418;19.080;2023-02-19T04:42:12;100559.69;;;9.23;86.42
63654;BME280;49809;47.418;19.080;2023-02-19T04:45:20;100561.28;;;9.24;87.09
63654;BME280;49809;47.418;19.080;2023-02-19T04:48:23;100567.19;;;9.14;88.19
63654;BME280;49809;47.418;19.080;2023-02-19T04:51:28;100557.50;;;9.20;88.56
63654;BME280;49809;47.418;19.080;2023-02-19T04:54:31;100560.16;;;9.20;88.66
63654;BME280;49809;47.418;19.080;2023-02-19T04:57:38;100565.78;;;9.11;89.11
63654;BME280;49809;47.418;19.080;2023-02-19T05:00:43;100560.28;;;9.13;89.11
63654;BME280;49809;47.418;19.080;2023-02-19T05:03:48;100566.47;;;9.19;89.11
63654;BME280;49809;47.418;19.080;2023-02-19T05:06:53;100568.94;;;9.25;88.76
63654;BME280;49809;47.418;19.080;2023-02-19T05:09:58;100572.28;;;9.32;88.84
63654;BME280;49809;47.418;19.080;2023-02-19T05:13:02;100567.78;;;9.33;88.87
63654;BME280;49809;47.418;19.080;2023-02-19T05:16:09;100569.25;;;9.40;88.70
63654;BME280;49809;47.418;19.080;2023-02-19T05:19:19;100570.28;;;9.39;88.75
63654;BME280;49809;47.418;19.080;2023-02-19T05:22:21;100571.78;;;9.35;88.82
63654;BME280;49809;47.418;19.080;2023-02-19T05:25:24;100567.72;;;9.44;88.52
63654;BME280;49809;47.418;19.080;2023-02-19T05:28:30;100569.84;;;9.31;89.00
63654;BME280;49809;47.418;19.080;2023-02-19T05:31:41;100569.09;;;9.19;89.81
63654;BME280;49809;47.418;19.080;2023-02-19T05:34:46;100568.59;;;9.05;90.28
63654;BME280;49809;47.418;19.080;2023-02-19T05:37:49;100567.91;;;8.86;91.36
63654;BME280;49809;47.418;19.080;2023-02-19T05:40:54;100561.19;;;8.79;91.73
63654;BME280;49809;47.418;19.080;2023-02-19T05:43:58;100557.19;;;8.64;91.99
63654;BME280;49809;47.418;19.080;2023-02-19T05:47:03;100552.84;;;8.47;92.94
63654;BME280;49809;47.418;19.080;2023-02-19T05:50:06;100556.31;;;8.36;93.63
63654;BME280;49809;47.418;19.080;2023-02-19T05:53:12;100565.44;;;8.21;94.80
63654;BME280;49809;47.418;19.080;2023-02-19T05:59:27;100571.72;;;8.09;96.93
63654;BME280;49809;47.418;19.080;2023-02-19T06:02:31;100568.87;;;8.10;97.75
63654;BME280;49809;47.418;19.080;2023-02-19T06:05:37;100575.50;;;8.01;98.68
63654;BME280;49809;47.418;19.080;2023-02-19T06:08:42;100590.84;;;8.04;99.26
63654;BME280;49809;47.418;19.080;2023-02-19T06:11:45;100580.19;;;7.99;99.87
63654;BME280;49809;47.418;19.080;2023-02-19T06:14:50;100585.81;;;7.91;100.00
63654;BME280;49809;47.418;19.080;2023-02-19T06:17:54;100581.34;;;7.92;100.00
63654;BME280;49809;47.418;19.080;2023-02-19T06:21:01;100579.94;;;7.77;100.00
63654;BME280;49809;47.418;19.080;2023-02-19T06:24:06;100581.00;;;7.88;100.00
63654;BME280;49809;47.418;19.080;2023-02-19T06:27:10;100578.78;;;7.73;100.00
63654;BME280;49809;47.418;19.080;2023-02-19T06:30:13;100567.88;;;7.70;99.92
63654;BME280;49809;47.418;19.080;2023-02-19T06:33:15;100568.87;;;7.57;100.00
63654;BME280;49809;47.418;19.080;2023-02-19T06:36:19;100575.97;;;7.57;99.97
63654;BME280;49809;47.418;19.080;2023-02-19T06:39:24;100570.91;;;7.43;100.00
63654;BME280;49809;47.418;19.080;2023-02-19T06:42:30;100567.62;;;7.60;99.56
63654;BME280;49809;47.418;19.080;2023-02-19T06:45:36;100568.34;;;7.67;98.79
63654;BME280;49809;47.418;19.080;2023-02-19T06:49:00;100565.66;;;7.55;98.78
63654;BME280;49809;47.418;19.080;2023-02-19T06:52:02;100559.22;;;7.51;98.30
63654;BME280;49809;47.418;19.080;2023-02-19T06:55:10;100562.66;;;7.52;97.54
63654;BME280;49809;47.418;19.080;2023-02-19T06:58:13;100564.88;;;7.55;97.56
63654;BME280;49809;47.418;19.080;2023-02-19T07:01:16;100569.88;;;7.45;97.61
63654;BME280;49809;47.418;19.080;2023-02-19T07:04:23;100573.34;;;7.57;96.89
63654;BME280;49809;47.418;19.080;2023-02-19T07:07:28;100566.84;;;7.59;96.25
63654;BME280;49809;47.418;19.080;2023-02-19T07:10:31;100571.56;;;7.69;95.75
63654;BME280;49809;47.418;19.080;2023-02-19T07:13:39;100568.41;;;7.60;95.88
63654;BME280;49809;47.418;19.080;2023-02-19T07:16:44;100572.37;;;7.81;94.85
63654;BME280;49809;47.418;19.080;2023-02-19T07:19:49;100584.75;;;7.80;94.99
63654;BME280;49809;47.418;19.080;2023-02-19T07:22:56;100578.78;;;7.85;94.68
63654;BME280;49809;47.418;19.080;2023-02-19T07:26:24;100580.41;;;7.74;95.17
63654;BME280;49809;47.418;19.080;2023-02-19T07:29:29;100583.94;;;7.80;95.39
63654;BME280;49809;47.418;19.080;2023-02-19T07:32:32;100589.59;;;7.83;95.31
63654;BME280;49809;47.418;19.080;2023-02-19T07:35:35;100571.59;;;7.92;94.81
63654;BME280;49809;47.418;19.080;2023-02-19T07:38:38;100555.56;;;8.05;94.11
63654;BME280;49809;47.418;19.080;2023-02-19T07:41:43;100556.59;;;8.04;94.12
63654;BME280;49809;47.418;19.080;2023-02-19T07:44:51;100554.41;;;8.01;94.34
63654;BME280;49809;47.418;19.080;2023-02-19T07:47:54;100557.28;;;8.11;94.45
63654;BME280;49809;47.418;19.080;2023-02-19T07:50:59;100552.56;;;8.13;94.01
63654;BME280;49809;47.418;19.080;2023-02-19T07:54:04;100551.22;;;8.22;93.29
63654;BME280;49809;47.418;19.080;2023-02-19T07:57:07;100553.56;;;8.42;92.43
63654;BME280;49809;47.418;19.080;2023-02-19T08:00:13;100563.41;;;8.35;92.50
63654;BME280;49809;47.418;19.080;2023-02-19T08:03:18;100568.66;;;8.12;93.89
63654;BME280;49809;47.418;19.080;2023-02-19T08:06:21;100567.62;;;8.13;94.31
63654;BME280;49809;47.418;19.080;2023-02-19T08:09:27;100574.72;;;8.12;94.86
63654;BME280;49809;47.418;19.080;2023-02-19T08:12:31;100582.38;;;8.14;97.20
63654;BME280;49809;47.418;19.080;2023-02-19T08:19:22;100596.25;;;8.09;100.00
63654;BME280;49809;47.418;19.080;2023-02-19T08:22:25;100590.53;;;8.01;100.00
63654;BME280;49809;47.418;19.080;2023-02-19T08:25:28;100591.09;;;8.03;100.00
63654;BME280;49809;47.418;19.080;2023-02-19T08:28:32;100597.88;;;7.99;100.00
63654;BME280;49809;47.418;19.080;2023-02-19T08:31:35;100600.59;;;7.92;100.00
63654;BME280;49809;47.418;19.080;2023-02-19T08:34:40;100605.75;;;7.87;100.00
63654;BME280;49809;47.418;19.080;2023-02-19T08:37:43;100592.44;;;7.82;100.00
63654;BME280;49809;47.418;19.080;2023-02-19T08:40:49;100593.59;;;7.86;100.00
63654;BME280;49809;47.418;19.080;2023-02-19T08:43:52;100587.62;;;7.91;100.00
63654;BME280;49809;47.418;19.080;2023-02-19T08:46:57;100579.72;;;7.91;100.00
63654;BME280;49809;47.418;19.080;2023-02-19T08:50:06;100581.25;;;7.98;100.00
63654;BME280;49809;47.418;19.080;2023-02-19T08:53:10;100569.09;;;7.97;100.00
63654;BME280;49809;47.418;19.080;2023-02-19T08:56:15;100583.88;;;7.98;100.00
63654;BME280;49809;47.418;19.080;2023-02-19T08:59:18;100581.00;;;7.88;100.00
63654;BME280;49809;47.418;19.080;2023-02-19T09:02:23;100572.97;;;7.83;100.00
63654;BME280;49809;47.418;19.080;2023-02-19T09:05:27;100576.53;;;7.89;100.00
63654;BME280;49809;47.418;19.080;2023-02-19T09:08:31;100571.50;;;7.99;100.00
63654;BME280;49809;47.418;19.080;2023-02-19T09:11:39;100573.66;;;8.13;100.00
63654;BME280;49809;47.418;19.080;2023-02-19T09:14:43;100575.03;;;8.04;100.00
63654;BME280;49809;47.418;19.080;2023-02-19T09:17:55;100565.66;;;8.08;100.00
63654;BME280;49809;47.418;19.080;2023-02-19T09:20:59;100566.09;;;8.05;100.00
63654;BME280;49809;47.418;19.080;2023-02-19T09:24:03;100561.63;;;8.06;100.00
63654;BME280;49809;47.418;19.080;2023-02-19T09:27:17;100552.81;;;8.00;100.00
63654;BME280;49809;47.418;19.080;2023-02-19T09:30:22;100568.03;;;7.86;100.00
63654;BME280;49809;47.418;19.080;2023-02-19T09:33:26;100562.66;;;7.93;100.00
63654;BME280;49809;47.418;19.080;2023-02-19T09:36:31;100564.25;;;7.94;100.00
63654;BME280;49809;47.418;19.080;2023-02-19T09:39:37;100556.13;;;7.96;100.00
63654;BME280;49809;47.418;19.080;2023-02-19T09:42:41;100555.69;;;7.99;100.00
63654;BME280;49809;47.418;19.080;2023-02-19T09:45:48;100552.94;;;7.94;100.00
63654;BME280;49809;47.418;19.080;2023-02-19T09:48:57;100544.66;;;7.90;100.00
63654;BME280;49809;47.418;19.080;2023-02-19T09:52:13;100541.91;;;7.97;100.00
63654;BME280;49809;47.418;19.080;2023-02-19T09:58:45;100547.91;;;8.15;100.00
63654;BME280;49809;47.418;19.080;2023-02-19T10:01:58;100545.37;;;8.20;100.00
63654;BME280;49809;47.418;19.080;2023-02-19T10:05:14;100539.88;;;8.22;100.00
63654;BME280;49809;47.418;19.080;2023-02-19T10:08:24;100536.34;;;8.40;100.00
63654;BME280;49809;47.418;19.080;2023-02-19T10:11:32;100526.66;;;8.57;100.00
63654;BME280;49809;47.418;19.080;2023-02-19T10:14:39;100519.91;;;8.61;100.00
63654;BME280;49809;47.418;19.080;2023-02-19T10:17:43;100517.94;;;8.68;100.00
63654;BME280;49809;47.418;19.080;2023-02-19T10:20:46;100504.75;;;8.96;100.00
63654;BME280;49809;47.418;19.080;2023-02-19T10:24:01;100494.16;;;8.80;100.00
63654;BME280;49809;47.418;19.080;2023-02-19T10:27:17;100488.47;;;8.99;100.00
63654;BME280;49809;47.418;19.080;2023-02-19T10:30:23;100485.72;;;9.39;100.00
63654;BME280;49809;47.418;19.080;2023-02-19T10:33:29;100494.97;;;9.70;100.00
63654;BME280;49809;47.418;19.080;2023-02-19T10:36:38;100490.84;;;10.13;100.00
63654;BME280;49809;47.418;19.080;2023-02-19T10:39:46;100479.38;;;10.07;100.00
63654;BME280;49809;47.418;19.080;2023-02-19T10:42:54;100480.78;;;10.48;100.00
63654;BME280;49809;47.418;19.080;2023-02-19T10:46:04;100466.94;;;10.89;100.00
63654;BME280;49809;47.418;19.080;2023-02-19T10:49:27;100458.84;;;10.74;100.00
63654;BME280;49809;47.418;19.080;2023-02-19T10:52:34;100459.28;;;10.44;100.00
63654;BME280;49809;47.418;19.080;2023-02-19T10:55:39;100447.53;;;10.57;100.00
63654;BME280;49809;47.418;19.080;2023-02-19T10:58:43;100436.00;;;10.46;100.00
63654;BME280;49809;47.418;19.080;2023-02-19T11:02:13;100435.78;;;10.48;100.00
63654;BME280;49809;47.418;19.080;2023-02-19T11:05:20;100428.94;;;10.52;100.00
63654;BME280;49809;47.418;19.080;2023-02-19T11:08:23;100417.38;;;10.85;100.00
63654;BME280;49809;47.418;19.080;2023-02-19T11:11:35;100405.19;;;11.11;98.50
63654;BME280;49809;47.418;19.080;2023-02-19T11:14:44;100395.41;;;11.48;97.26
63654;BME280;49809;47.418;19.080;2023-02-19T11:17:58;100386.03;;;11.72;96.15
63654;BME280;49809;47.418;19.080;2023-02-19T11:21:05;100368.06;;;12.52;86.52
63654;BME280;49809;47.418;19.080;2023-02-19T11:24:24;100367.62;;;13.05;80.30
63654;BME280;49809;47.418;19.080;2023-02-19T11:27:31;100379.59;;;13.43;77.98
63654;BME280;49809;47.418;19.080;2023-02-19T11:30:42;100363.63;;;13.54;77.64
63654;BME280;49809;47.418;19.080;2023-02-19T11:34:00;100343.81;;;13.95;72.87
63654;BME280;49809;47.418;19.080;2023-02-19T11:37:18;100332.63;;;14.03;73.17
63654;BME280;49809;47.418;19.080;2023-02-19T11:40:36;100323.53;;;14.09;71.66
63654;BME280;49809;47.418;19.080;2023-02-19T11:53:31;100321.81;;;14.33;66.71
63654;BME280;49809;47.418;19.080;2023-02-19T11:56:38;100326.84;;;14.45;66.97
63654;BME280;49809;47.418;19.080;2023-02-19T11:59:51;100331.81;;;14.08;68.86
63654;BME280;49809;47.418;19.080;2023-02-19T12:10:19;100316.59;;;14.18;68.98
63654;BME280;49809;47.418;19.080;2023-02-19T12:22:19;100301.09;;;14.25;66.14
63654;BME280;49809;47.418;19.080;2023-02-19T12:26:18;100308.88;;;14.17;65.69
63654;BME280;49809;47.418;19.080;2023-02-19T12:33:06;100278.81;;;14.11;64.50
63654;BME280;49809;47.418;19.080;2023-02-19T12:37:16;100284.66;;;14.18;64.96
63654;BME280;49809;47.418;19.080;2023-02-19T12:45:07;100293.41;;;14.19;64.49
63654;BME280;49809;47.418;19.080;2023-02-19T12:52:35;100312.75;;;14.40;64.86
63654;BME280;49809;47.418;19.080;2023-02-19T12:56:43;100308.69;;;14.52;65.37
63654;BME280;49809;47.418;19.080;2023-02-19T13:00:21;100336.28;;;14.71;64.38
63654;BME280;49809;47.418;19.080;2023-02-19T13:04:07;100325.28;;;14.78;64.02
63654;BME280;49809;47.418;19.080;2023-02-19T13:07:37;100321.16;;;14.96;63.50
63654;BME280;49809;47.418;19.080;2023-02-19T13:11:37;100317.28;;;14.78;63.44
63654;BME280;49809;47.418;19.080;2023-02-19T13:15:48;100319.09;;;15.16;63.59
63654;BME280;49809;47.418;19.080;2023-02-19T13:20:24;100297.03;;;15.35;61.84
63654;BME280;49809;47.418;19.080;2023-02-19T13:24:30;100295.75;;;15.32;63.04
63654;BME280;49809;47.418;19.080;2023-02-19T13:28:15;100295.22;;;15.59;61.97
63654;BME280;49809;47.418;19.080;2023-02-19T13:39:13;100304.44;;;15.43;62.66
63654;BME280;49809;47.418;19.080;2023-02-19T13:42:39;100306.13;;;15.62;61.78
63654;BME280;49809;47.418;19.080;2023-02-19T13:46:10;100294.66;;;15.09;62.50
63654;BME280;49809;47.418;19.080;2023-02-19T13:50:04;100314.87;;;15.68;62.11
63654;BME280;49809;47.418;19.080;2023-02-19T13:53:58;100303.84;;;15.51;60.23
63654;BME280;49809;47.418;19.080;2023-02-19T13:57:44;100321.81;;;14.77;62.82
63654;BME280;49809;47.418;19.080;2023-02-19T14:12:55;100393.22;;;12.24;77.11
63654;BME280;49809;47.418;19.080;2023-02-19T14:24:52;100447.03;;;9.16;100.00
63654;BME280;49809;47.418;19.080;2023-02-19T14:28:44;100455.50;;;9.02;100.00
63654;BME280;49809;47.418;19.080;2023-02-19T14:32:30;100438.34;;;8.88;100.00
63654;BME280;49809;47.418;19.080;2023-02-19T14:36:30;100456.09;;;8.76;100.00
63654;BME280;49809;47.418;19.080;2023-02-19T14:40:24;100461.50;;;8.69;100.00
63654;BME280;49809;47.418;19.080;2023-02-19T14:44:18;100474.41;;;8.82;100.00
63654;BME280;49809;47.418;19.080;2023-02-19T14:47:43;100480.78;;;8.98;100.00
63654;BME280;49809;47.418;19.080;2023-02-19T14:51:11;100490.72;;;9.07;100.00
63654;BME280;49809;47.418;19.080;2023-02-19T15:07:22;100482.72;;;9.47;100.00
63654;BME280;49809;47.418;19.080;2023-02-19T15:15:14;100483.81;;;9.35;100.00
63654;BME280;49809;47.418;19.080;2023-02-19T15:19:08;100509.16;;;9.19;100.00
63654;BME280;49809;47.418;19.080;2023-02-19T15:22:31;100508.19;;;9.08;100.00
63654;BME280;49809;47.418;19.080;2023-02-19T15:26:20;100519.91;;;9.01;100.00
63654;BME280;49809;47.418;19.080;2023-02-19T15:29:51;100516.94;;;8.97;100.00
63654;BME280;49809;47.418;19.080;2023-02-19T15:33:55;100515.56;;;8.95;100.00
63654;BME280;49809;47.418;19.080;2023-02-19T15:37:39;100513.75;;;8.84;100.00
63654;BME280;49809;47.418;19.080;2023-02-19T15:41:22;100501.81;;;8.81;100.00
63654;BME280;49809;47.418;19.080;2023-02-19T15:45:02;100499.00;;;8.71;100.00
63654;BME280;49809;47.418;19.080;2023-02-19T15:49:06;100483.78;;;8.61;100.00
63654;BME280;49809;47.418;19.080;2023-02-19T15:57:13;100475.66;;;8.51;100.00
63654;BME280;49809;47.418;19.080;2023-02-19T16:05:10;100488.34;;;8.66;100.00
63654;BME280;49809;47.418;19.080;2023-02-19T16:08:38;100500.28;;;8.57;100.00
63654;BME280;49809;47.418;19.080;2023-02-19T16:12:22;100516.91;;;8.69;100.00
63654;BME280;49809;47.418;19.080;2023-02-19T16:16:14;100514.84;;;8.59;100.00
63654;BME280;49809;47.418;19.080;2023-02-19T16:23:28;100531.66;;;8.93;95.79
63654;BME280;49809;47.418;19.080;2023-02-19T16:26:54;100544.16;;;8.86;96.50
63654;BME280;49809;47.418;19.080;2023-02-19T16:34:16;100543.22;;;9.04;94.11
63654;BME280;49809;47.418;19.080;2023-02-19T16:37:58;100558.03;;;8.93;95.21
63654;BME280;49809;47.418;19.080;2023-02-19T16:41:11;100547.16;;;8.90;95.37
63654;BME280;49809;47.418;19.080;2023-02-19T16:47:37;100560.47;;;8.95;95.39
63654;BME280;49809;47.418;19.080;2023-02-19T16:51:22;100594.53;;;8.96;95.35
63654;BME280;49809;47.418;19.080;2023-02-19T16:54:58;100584.12;;;8.90;100.00
63654;BME280;49809;47.418;19.080;2023-02-19T16:58:18;100576.47;;;8.65;100.00
63654;BME280;49809;47.418;19.080;2023-02-19T17:02:09;100563.41;;;8.47;100.00
63654;BME280;49809;47.418;19.080;2023-02-19T17:05:37;100562.56;;;8.23;100.00
63654;BME280;49809;47.418;19.080;2023-02-19T17:09:15;100578.59;;;8.10;100.00
63654;BME280;49809;47.418;19.080;2023-02-19T17:13:05;100572.19;;;8.06;100.00
63654;BME280;49809;47.418;19.080;2023-02-19T17:16:30;100576.41;;;7.95;100.00
63654;BME280;49809;47.418;19.080;2023-02-19T17:19:44;100575.28;;;8.03;100.00
63654;BME280;49809;47.418;19.080;2023-02-19T17:23:11;100591.09;;;8.14;99.65
63654;BME280;49809;47.418;19.080;2023-02-19T17:26:54;100597.06;;;7.98;100.00
63654;BME280;49809;47.418;19.080;2023-02-19T17:30:34;100592.22;;;7.95;100.00
63654;BME280;49809;47.418;19.080;2023-02-19T17:34:06;100586.25;;;7.88;100.00
63654;BME280;49809;47.418;19.080;2023-02-19T17:37:46;100599.56;;;7.93;98.11
63654;BME280;49809;47.418;19.080;2023-02-19T17:41:49;100614.09;;;7.84;99.24
63654;BME280;49809;47.418;19.080;2023-02-19T17:45:32;100617.84;;;7.76;98.53
63654;BME280;49809;47.418;19.080;2023-02-19T17:49:38;100609.47;;;7.79;95.57
63654;BME280;49809;47.418;19.080;2023-02-19T17:53:18;100627.72;;;7.81;94.00
63654;BME280;49809;47.418;19.080;2023-02-19T17:57:00;100640.31;;;7.79;93.87
63654;BME280;49809;47.418;19.080;2023-02-19T18:00:29;100651.56;;;7.86;92.22
63654;BME280;49809;47.418;19.080;2023-02-19T18:04:14;100654.28;;;7.79;92.94
63654;BME280;49809;47.418;19.080;2023-02-19T18:07:38;100669.44;;;7.84;91.79
63654;BME280;49809;47.418;19.080;2023-02-19T18:11:45;100658.59;;;7.92;90.69
63654;BME280;49809;47.418;19.080;2023-02-19T18:15:31;100663.50;;;7.89;90.74
63654;BME280;49809;47.418;19.080;2023-02-19T18:19:17;100642.31;;;7.95;90.22
63654;BME280;49809;47.418;19.080;2023-02-19T18:23:02;100676.09;;;7.86;91.67
63654;BME280;49809;47.418;19.080;2023-02-19T18:26:33;100681.44;;;7.80;91.28
63654;BME280;49809;47.418;19.080;2023-02-19T18:30:18;100692.16;;;7.67;92.30
63654;BME280;49809;47.418;19.080;2023-02-19T18:34:05;100709.31;;;7.39;94.54
63654;BME280;49809;47.418;19.080;2023-02-19T18:37:38;100718.25;;;7.38;94.45
63654;BME280;49809;47.418;19.080;2023-02-19T18:41:13;100722.84;;;7.43;93.97
63654;BME280;49809;47.418;19.080;2023-02-19T18:44:39;100735.66;;;7.39;93.71
63654;BME280;49809;47.418;19.080;2023-02-19T18:48:05;100739.00;;;7.28;94.45
63654;BME280;49809;47.418;19.080;2023-02-19T18:51:57;100743.31;;;7.41;92.88
63654;BME280;49809;47.418;19.080;2023-02-19T18:55:22;100756.78;;;7.33;93.32
63654;BME280;49809;47.418;19.080;2023-02-19T18:58:47;100758.78;;;7.37;93.11
63654;BME280;49809;47.418;19.080;2023-02-19T19:02:24;100767.78;;;7.30;93.93
63654;BME280;49809;47.418;19.080;2023-02-19T19:05:37;100760.94;;;7.22;94.72
63654;BME280;49809;47.418;19.080;2023-02-19T19:09:20;100784.94;;;7.14;95.02
63654;BME280;49809;47.418;19.080;2023-02-19T19:12:48;100776.22;;;7.14;95.41
63654;BME280;49809;47.418;19.080;2023-02-19T19:16:31;100785.81;;;7.26;94.10
63654;BME280;49809;47.418;19.080;2023-02-19T19:20:12;100778.97;;;7.43;93.10
63654;BME280;49809;47.418;19.080;2023-02-19T19:23:45;100770.78;;;7.52;92.46
63654;BME280;49809;47.418;19.080;2023-02-19T19:27:19;100757.59;;;7.52;92.50
63654;BME280;49809;47.418;19.080;2023-02-19T19:31:15;100744.94;;;7.42;93.15
63654;BME280;49809;47.418;19.080;2023-02-19T19:35:00;100742.53;;;7.59;91.67
63654;BME280;49809;47.418;19.080;2023-02-19T19:38:37;100755.09;;;7.57;91.93
63654;BME280;49809;47.418;19.080;2023-02-19T19:42:24;100749.78;;;7.45;93.04
63654;BME280;49809;47.418;19.080;2023-02-19T19:45:56;100754.66;;;7.41;92.43
63654;BME280;49809;47.418;19.080;2023-02-19T19:49:39;100753.78;;;7.29;93.93
63654;BME280;49809;47.418;19.080;2023-02-19T19:53:04;100768.13;;;7.15;94.85